RJA300 OJAI-OJAQ
Flight info
| Callsign | RJA300 |
|---|---|
| Flight time | 0h 28m |
| Altitude | 18000 |
| Route | MN08R DCT OBTAN DCT LOSIL M319 LOXUS DCT QATIM DCT BAKIR DCT LOXAL DCT KEDET DCT GENUN DCT AQ010 DCT AQ011 |
| Aircraft | A20N/M-SDE2E3FGHIRWXY/LB1 |
Departure
| Time | 2026-04-30 14:02 |
|---|---|
| Airport | Queen Alia International Airport (OJAI) |
Arrival
| Time | 2026-04-30 14:31 |
|---|---|
| Airport | King Hussein International Airport (OJAQ) |
| Time | Latitude | Longitude | Altitude | Speed | Heading |
|---|---|---|---|---|---|
| 2026-04-30 13:30 | 31.72117 | 35.98998 | 2378 ft | 0 kts | 353° |
| 2026-04-30 13:50 | 31.72103 | 35.99000 | 2382 ft | 3 kts | 353° |
| 2026-04-30 13:51 | 31.72084 | 35.99002 | 2381 ft | 3 kts | 353° |
| 2026-04-30 13:51 | 31.72064 | 35.99001 | 2379 ft | 3 kts | 28° |
| 2026-04-30 13:51 | 31.72050 | 35.98985 | 2385 ft | 3 kts | 70° |
| 2026-04-30 13:51 | 31.72050 | 35.98984 | 2385 ft | 0 kts | 73° |
| 2026-04-30 13:55 | 31.72050 | 35.98985 | 2376 ft | 0 kts | 73° |
| 2026-04-30 13:57 | 31.72052 | 35.99004 | 2378 ft | 4 kts | 91° |
| 2026-04-30 13:57 | 31.72051 | 35.99065 | 2376 ft | 11 kts | 91° |
| 2026-04-30 13:57 | 31.72058 | 35.99171 | 2377 ft | 15 kts | 80° |
| 2026-04-30 13:57 | 31.72081 | 35.99304 | 2377 ft | 18 kts | 78° |
| 2026-04-30 13:58 | 31.72089 | 35.99438 | 2380 ft | 17 kts | 117° |
| 2026-04-30 13:58 | 31.71946 | 35.99612 | 2375 ft | 15 kts | 84° |
| 2026-04-30 13:58 | 31.71964 | 35.99748 | 2376 ft | 19 kts | 79° |
| 2026-04-30 13:59 | 31.71991 | 35.99915 | 2380 ft | 23 kts | 81° |
| 2026-04-30 13:59 | 31.72017 | 36.00114 | 2376 ft | 26 kts | 80° |
| 2026-04-30 13:59 | 31.72047 | 36.00318 | 2379 ft | 25 kts | 80° |
| 2026-04-30 13:59 | 31.72080 | 36.00530 | 2377 ft | 28 kts | 81° |
| 2026-04-30 14:00 | 31.72107 | 36.00716 | 2378 ft | 22 kts | 81° |
| 2026-04-30 14:00 | 31.72164 | 36.01109 | 2379 ft | 27 kts | 82° |
| 2026-04-30 14:00 | 31.72196 | 36.01340 | 2379 ft | 30 kts | 80° |
| 2026-04-30 14:01 | 31.72230 | 36.01581 | 2379 ft | 27 kts | 80° |
| 2026-04-30 14:01 | 31.72223 | 36.01770 | 2381 ft | 22 kts | 128° |
| 2026-04-30 14:01 | 31.72085 | 36.01816 | 2380 ft | 22 kts | 169° |
| 2026-04-30 14:01 | 31.71974 | 36.01740 | 2385 ft | 21 kts | 259° |
| 2026-04-30 14:02 | 31.71925 | 36.01391 | 2379 ft | 77 kts | 260° |
| 2026-04-30 14:02 | 31.71790 | 36.00463 | 2375 ft | 154 kts | 259° |
| 2026-04-30 14:02 | 31.71596 | 35.99107 | 2917 ft | 171 kts | 265° |
| 2026-04-30 14:02 | 31.71382 | 35.97730 | 3759 ft | 170 kts | 261° |
| 2026-04-30 14:03 | 31.71161 | 35.96335 | 4380 ft | 182 kts | 262° |
| 2026-04-30 14:03 | 31.70925 | 35.94764 | 4668 ft | 207 kts | 262° |
| 2026-04-30 14:03 | 31.70661 | 35.93029 | 4961 ft | 229 kts | 261° |
| 2026-04-30 14:03 | 31.70375 | 35.91114 | 5344 ft | 244 kts | 262° |
| 2026-04-30 14:04 | 31.70126 | 35.89114 | 5923 ft | 250 kts | 262° |
| 2026-04-30 14:04 | 31.69654 | 35.87149 | 6535 ft | 255 kts | 245° |
| 2026-04-30 14:04 | 31.68599 | 35.85380 | 6905 ft | 270 kts | 220° |
| 2026-04-30 14:04 | 31.66994 | 35.84237 | 7501 ft | 275 kts | 203° |
| 2026-04-30 14:05 | 31.65212 | 35.83476 | 8335 ft | 272 kts | 195° |
| 2026-04-30 14:05 | 31.63377 | 35.82929 | 9014 ft | 271 kts | 192° |
| 2026-04-30 14:05 | 31.61511 | 35.82473 | 9557 ft | 274 kts | 190° |
| 2026-04-30 14:05 | 31.59649 | 35.82039 | 10075 ft | 277 kts | 191° |
| 2026-04-30 14:06 | 31.57709 | 35.81571 | 10331 ft | 290 kts | 191° |
| 2026-04-30 14:06 | 31.53621 | 35.80491 | 10765 ft | 310 kts | 192° |
| 2026-04-30 14:07 | 31.49389 | 35.79292 | 11550 ft | 314 kts | 193° |
| 2026-04-30 14:07 | 31.47289 | 35.78688 | 11851 ft | 315 kts | 193° |
| 2026-04-30 14:07 | 31.45142 | 35.78071 | 12210 ft | 318 kts | 193° |
| 2026-04-30 14:08 | 31.41519 | 35.77033 | 12699 ft | 328 kts | 193° |
| 2026-04-30 14:08 | 31.38470 | 35.76164 | 13193 ft | 350 kts | 193° |
| 2026-04-30 14:08 | 31.34457 | 35.75023 | 14314 ft | 360 kts | 194° |
| 2026-04-30 14:09 | 31.31996 | 35.74324 | 14994 ft | 364 kts | 194° |
| 2026-04-30 14:09 | 31.29529 | 35.73624 | 15664 ft | 369 kts | 194° |
| 2026-04-30 14:09 | 31.24475 | 35.72189 | 17001 ft | 378 kts | 195° |
| 2026-04-30 14:10 | 31.21917 | 35.71462 | 17596 ft | 382 kts | 195° |
| 2026-04-30 14:10 | 31.19316 | 35.70724 | 17911 ft | 385 kts | 195° |
| 2026-04-30 14:10 | 31.16681 | 35.69976 | 17955 ft | 402 kts | 195° |
| 2026-04-30 14:10 | 31.13932 | 35.69195 | 17950 ft | 409 kts | 195° |
| 2026-04-30 14:11 | 31.11148 | 35.68406 | 17951 ft | 410 kts | 195° |
| 2026-04-30 14:11 | 31.08390 | 35.67628 | 17954 ft | 410 kts | 195° |
| 2026-04-30 14:11 | 31.05609 | 35.66843 | 17953 ft | 410 kts | 195° |
| 2026-04-30 14:11 | 31.02816 | 35.66056 | 17955 ft | 410 kts | 195° |
| 2026-04-30 14:12 | 31.00073 | 35.65283 | 17956 ft | 410 kts | 195° |
| 2026-04-30 14:12 | 30.97288 | 35.64499 | 17956 ft | 410 kts | 195° |
| 2026-04-30 14:12 | 30.94507 | 35.63714 | 17951 ft | 411 kts | 195° |
| 2026-04-30 14:12 | 30.91714 | 35.62926 | 17954 ft | 411 kts | 195° |
| 2026-04-30 14:13 | 30.88953 | 35.62149 | 17954 ft | 411 kts | 195° |
| 2026-04-30 14:13 | 30.86187 | 35.61372 | 17950 ft | 412 kts | 195° |
| 2026-04-30 14:13 | 30.83403 | 35.60589 | 17949 ft | 411 kts | 195° |
| 2026-04-30 14:13 | 30.80600 | 35.59803 | 17946 ft | 411 kts | 195° |
| 2026-04-30 14:14 | 30.77817 | 35.59021 | 17947 ft | 412 kts | 195° |
| 2026-04-30 14:14 | 30.75051 | 35.58245 | 17942 ft | 412 kts | 195° |
| 2026-04-30 14:14 | 30.72256 | 35.57461 | 17946 ft | 412 kts | 195° |
| 2026-04-30 14:14 | 30.69456 | 35.56676 | 17946 ft | 412 kts | 195° |
| 2026-04-30 14:15 | 30.66690 | 35.55899 | 17940 ft | 412 kts | 195° |
| 2026-04-30 14:15 | 30.63890 | 35.55113 | 17945 ft | 412 kts | 195° |
| 2026-04-30 14:15 | 30.61091 | 35.54329 | 17944 ft | 413 kts | 195° |
| 2026-04-30 14:15 | 30.58321 | 35.53553 | 17946 ft | 413 kts | 195° |
| 2026-04-30 14:16 | 30.55506 | 35.52765 | 17943 ft | 413 kts | 195° |
| 2026-04-30 14:16 | 30.52729 | 35.51990 | 17941 ft | 413 kts | 195° |
| 2026-04-30 14:16 | 30.49952 | 35.51217 | 17938 ft | 413 kts | 195° |
| 2026-04-30 14:16 | 30.47152 | 35.50436 | 17945 ft | 414 kts | 195° |
| 2026-04-30 14:17 | 30.44347 | 35.49655 | 17947 ft | 414 kts | 195° |
| 2026-04-30 14:17 | 30.41540 | 35.48873 | 17933 ft | 414 kts | 195° |
| 2026-04-30 14:17 | 30.38724 | 35.48088 | 17937 ft | 414 kts | 195° |
| 2026-04-30 14:17 | 30.35942 | 35.47314 | 17933 ft | 414 kts | 195° |
| 2026-04-30 14:18 | 30.33127 | 35.46531 | 17924 ft | 414 kts | 195° |
| 2026-04-30 14:18 | 30.30323 | 35.45752 | 17931 ft | 414 kts | 195° |
| 2026-04-30 14:18 | 30.24724 | 35.44196 | 17914 ft | 415 kts | 195° |
| 2026-04-30 14:19 | 30.19252 | 35.42139 | 17923 ft | 412 kts | 206° |
| 2026-04-30 14:19 | 30.16656 | 35.40699 | 17925 ft | 411 kts | 209° |
| 2026-04-30 14:19 | 30.14146 | 35.39175 | 17912 ft | 411 kts | 210° |
| 2026-04-30 14:20 | 30.11643 | 35.37614 | 17906 ft | 411 kts | 210° |
| 2026-04-30 14:20 | 30.09127 | 35.36051 | 17904 ft | 411 kts | 210° |
| 2026-04-30 14:20 | 30.04071 | 35.32984 | 17901 ft | 411 kts | 209° |
| 2026-04-30 14:21 | 30.01521 | 35.31469 | 17907 ft | 411 kts | 209° |
| 2026-04-30 14:21 | 29.98971 | 35.29967 | 17893 ft | 411 kts | 209° |
| 2026-04-30 14:21 | 29.93889 | 35.26988 | 17897 ft | 412 kts | 209° |
| 2026-04-30 14:22 | 29.91325 | 35.25486 | 17892 ft | 412 kts | 209° |
| 2026-04-30 14:22 | 29.86238 | 35.22502 | 17887 ft | 411 kts | 209° |
| 2026-04-30 14:22 | 29.83680 | 35.21001 | 17880 ft | 411 kts | 209° |
| 2026-04-30 14:23 | 29.78582 | 35.18009 | 17867 ft | 412 kts | 209° |
| 2026-04-30 14:23 | 29.73461 | 35.15007 | 17866 ft | 412 kts | 209° |
| 2026-04-30 14:24 | 29.68315 | 35.12100 | 17856 ft | 414 kts | 202° |
| 2026-04-30 14:24 | 29.65544 | 35.11250 | 17863 ft | 417 kts | 194° |
| 2026-04-30 14:25 | 29.59886 | 35.10455 | 17090 ft | 407 kts | 187° |
| 2026-04-30 14:25 | 29.54098 | 35.09935 | 14966 ft | 420 kts | 187° |
| 2026-04-30 14:26 | 29.48354 | 35.09325 | 13301 ft | 414 kts | 188° |
| 2026-04-30 14:26 | 29.45496 | 35.08980 | 12521 ft | 408 kts | 188° |
| 2026-04-30 14:26 | 29.40025 | 35.07892 | 11026 ft | 395 kts | 204° |
| 2026-04-30 14:27 | 29.37767 | 35.06171 | 10275 ft | 390 kts | 223° |
| 2026-04-30 14:27 | 29.36182 | 35.03681 | 9405 ft | 389 kts | 243° |
| 2026-04-30 14:27 | 29.35470 | 35.00709 | 8527 ft | 388 kts | 264° |
| 2026-04-30 14:28 | 29.36908 | 34.94972 | 6985 ft | 380 kts | 307° |
| 2026-04-30 14:28 | 29.38899 | 34.92939 | 6189 ft | 377 kts | 328° |
| 2026-04-30 14:28 | 29.41319 | 34.91952 | 5468 ft | 372 kts | 351° |
| 2026-04-30 14:28 | 29.43874 | 34.92097 | 4826 ft | 364 kts | 13° |
| 2026-04-30 14:29 | 29.48130 | 34.95013 | 3317 ft | 356 kts | 35° |
| 2026-04-30 14:29 | 29.51470 | 34.97629 | 2196 ft | 341 kts | 28° |
| 2026-04-30 14:30 | 29.57754 | 35.00606 | 1237 ft | 253 kts | 18° |
| 2026-04-30 14:31 | 29.58950 | 35.01051 | 846 ft | 0 kts | 8° |